Time;durP1;ratioP1;P1;durP2;ratioP2;P2;SDS_P1;SDS_P2;PMS_P1;PMS_P2;Temp;Humidity;BMP_temperature;BMP_pressure;BME280_temperature;BME280_humidity;BME280_pressure;Samples;Min_cycle;Max_cycle;Signal;HPM_P1;HPM_P2
2022/06/18 00:01:58;;;;;;;3.05;2.85;;;17.70;99.90;;;;;;5130324;27;20199;-92
2022/06/18 00:04:27;;;;;;;2.35;2.15;;;17.60;99.90;;;;;;5130343;27;20203;-92
2022/06/18 00:07:09;;;;;;;5.18;2.50;;;17.60;99.90;;;;;;5130696;27;20203;-92
2022/06/18 00:09:41;;;;;;;3.35;2.97;;;17.60;99.90;;;;;;5130384;27;20247;-93
2022/06/18 00:15:02;;;;;;;2.63;2.42;;;17.50;99.90;;;;;;5130214;27;20207;-92
2022/06/18 00:17:31;;;;;;;2.67;2.20;;;17.50;99.90;;;;;;5130127;27;20238;-93
2022/06/18 00:20:00;;;;;;;3.13;2.63;;;17.60;99.90;;;;;;5130037;27;20223;-92
2022/06/18 00:22:30;;;;;;;2.45;2.28;;;17.60;99.90;;;;;;5130371;27;20294;-92
2022/06/18 00:25:00;;;;;;;2.08;1.98;;;17.70;99.90;;;;;;5130497;27;20203;-92
2022/06/18 00:27:28;;;;;;;2.88;2.58;;;17.60;99.90;;;;;;5130090;27;20211;-92
2022/06/18 00:29:56;;;;;;;2.15;1.95;;;17.60;99.90;;;;;;5129878;27;20219;-93
2022/06/18 00:32:24;;;;;;;1.80;1.70;;;17.70;99.90;;;;;;5129732;27;20200;-93
2022/06/18 00:34:54;;;;;;;2.30;2.13;;;17.70;99.90;;;;;;5130097;27;20207;-92
2022/06/18 00:37:23;;;;;;;1.90;1.80;;;17.80;99.90;;;;;;5130331;27;20211;-92
2022/06/18 00:39:52;;;;;;;1.80;1.70;;;17.80;99.90;;;;;;5121779;27;20266;-92
2022/06/18 00:42:28;;;;;;;2.25;2.10;;;17.90;99.90;;;;;;5116202;28;20227;-92
2022/06/18 00:44:59;;;;;;;2.58;2.25;;;17.90;99.90;;;;;;5116007;28;20199;-93
2022/06/18 00:47:34;;;;;;;2.20;2.10;;;18.00;99.90;;;;;;5116355;28;20257;-92
2022/06/18 00:50:13;;;;;;;5.30;2.58;;;18.00;99.90;;;;;;5115838;28;20319;-92
2022/06/18 00:52:45;;;;;;;2.28;2.08;;;18.00;99.90;;;;;;5116639;28;20235;-92
2022/06/18 00:55:19;;;;;;;1.83;1.73;;;18.00;99.90;;;;;;5115765;28;20286;-92
2022/06/18 00:57:51;;;;;;;2.05;1.85;;;17.90;99.90;;;;;;5116026;28;20308;-93
2022/06/18 01:00:23;;;;;;;2.40;2.20;;;17.90;99.90;;;;;;5115949;28;20302;-92
2022/06/18 01:02:52;;;;;;;3.28;2.42;;;17.90;99.90;;;;;;5120485;28;20295;-92
2022/06/18 01:05:25;;;;;;;2.00;1.90;;;17.80;99.90;;;;;;5120335;28;20211;-92
2022/06/18 01:07:57;;;;;;;1.90;1.80;;;17.70;99.90;;;;;;5115739;28;20234;-92
2022/06/18 01:10:30;;;;;;;2.25;1.88;;;17.70;99.90;;;;;;5115596;28;20247;-93
2022/06/18 01:13:02;;;;;;;2.33;2.15;;;17.70;99.90;;;;;;5115790;28;20227;-92
2022/06/18 01:15:36;;;;;;;1.92;1.83;;;17.60;99.90;;;;;;5115233;28;20204;-92
2022/06/18 01:18:06;;;;;;;2.10;2.00;;;17.60;99.90;;;;;;5115165;28;20199;-92
2022/06/18 01:20:47;;;;;;;2.28;2.03;;;17.50;99.90;;;;;;5115341;28;20212;-92
2022/06/18 01:23:21;;;;;;;2.97;2.78;;;17.50;99.90;;;;;;5115319;28;20203;-93
2022/06/18 01:25:53;;;;;;;2.22;2.13;;;17.40;99.90;;;;;;5115227;28;20238;-92
2022/06/18 01:28:22;;;;;;;2.95;2.20;;;17.40;99.90;;;;;;5115220;28;20231;-92
2022/06/18 01:30:50;;;;;;;3.03;2.83;;;17.40;99.90;;;;;;5114979;28;20208;-92
2022/06/18 01:33:19;;;;;;;2.33;2.22;;;17.30;99.90;;;;;;5114933;28;20227;-92
2022/06/18 01:35:54;;;;;;;2.55;2.35;;;17.30;99.90;;;;;;5115095;28;20307;-92
2022/06/18 01:38:24;;;;;;;2.38;2.17;;;17.20;99.90;;;;;;5115173;28;20234;-93
2022/06/18 01:40:57;;;;;;;1.80;1.70;;;17.20;99.90;;;;;;5115284;27;20211;-92
2022/06/18 01:43:27;;;;;;;2.50;2.30;;;17.10;99.90;;;;;;5115387;28;20200;-92
2022/06/18 01:46:00;;;;;;;1.80;1.70;;;17.10;99.90;;;;;;5114774;28;20204;-93
2022/06/18 01:48:32;;;;;;;3.22;1.80;;;17.10;99.90;;;;;;5114889;28;20223;-91
2022/06/18 01:51:06;;;;;;;2.33;2.13;;;17.10;99.90;;;;;;5113895;28;20207;-92
2022/06/18 01:53:39;;;;;;;2.03;1.83;;;17.00;99.90;;;;;;5115015;28;20205;-92
2022/06/18 01:56:14;;;;;;;2.53;2.33;;;17.00;99.90;;;;;;5115111;28;20203;-92
2022/06/18 01:58:47;;;;;;;2.15;2.05;;;17.00;99.90;;;;;;5114647;28;20216;-92
2022/06/18 02:01:21;;;;;;;2.08;1.95;;;17.00;99.90;;;;;;5114171;28;20298;-93
2022/06/18 02:03:49;;;;;;;3.33;2.72;;;17.00;99.90;;;;;;5114534;28;20227;-92
2022/06/18 02:06:17;;;;;;;2.45;2.25;;;17.00;99.90;;;;;;5114465;28;20208;-93
2022/06/18 02:08:46;;;;;;;2.55;2.20;;;16.90;99.90;;;;;;5114444;28;20300;-92
2022/06/18 02:11:18;;;;;;;2.47;2.28;;;16.90;99.90;;;;;;5114120;28;20196;-92
2022/06/18 02:13:49;;;;;;;2.63;2.42;;;16.90;99.90;;;;;;5114245;28;20282;-91
2022/06/18 02:16:21;;;;;;;2.30;2.15;;;16.80;99.90;;;;;;5114488;28;20294;-92
2022/06/18 02:18:50;;;;;;;2.38;2.17;;;16.80;99.90;;;;;;5114087;28;20223;-92
2022/06/18 02:21:23;;;;;;;2.50;2.25;;;16.70;99.90;;;;;;5114102;28;20204;-92
2022/06/18 02:23:52;;;;;;;2.05;1.90;;;16.70;99.90;;;;;;5114306;28;20287;-92
2022/06/18 02:26:25;;;;;;;2.08;1.98;;;16.70;99.90;;;;;;5113793;28;20235;-92
2022/06/18 02:28:54;;;;;;;2.58;2.38;;;16.60;99.90;;;;;;5116544;28;20258;-92
2022/06/18 02:31:36;;;;;;;2.28;2.08;;;16.60;99.90;;;;;;5114434;27;20230;-92
2022/06/18 02:34:09;;;;;;;1.92;1.83;;;16.50;99.90;;;;;;5119060;28;20228;-92
2022/06/18 02:36:40;;;;;;;2.40;2.17;;;16.50;99.90;;;;;;5117685;28;20227;-92
2022/06/18 02:39:16;;;;;;;1.73;1.63;;;16.40;99.90;;;;;;5113645;28;20227;-92
2022/06/18 02:41:46;;;;;;;1.75;1.65;;;16.40;99.90;;;;;;5114007;28;20278;-92
2022/06/18 02:44:16;;;;;;;2.22;2.10;;;16.30;99.90;;;;;;5113808;28;20253;-92
2022/06/18 02:46:44;;;;;;;2.42;2.17;;;16.30;99.90;;;;;;5113605;28;20200;-92
2022/06/18 02:49:15;;;;;;;2.58;2.38;;;16.30;99.90;;;;;;5114032;27;20223;-92
2022/06/18 02:51:44;;;;;;;5.00;2.70;;;16.30;99.90;;;;;;5113688;28;20203;-92
2022/06/18 02:54:12;;;;;;;2.08;1.95;;;16.30;99.90;;;;;;5113772;28;20204;-92
2022/06/18 02:56:43;;;;;;;2.42;2.22;;;16.30;99.90;;;;;;5113394;28;20204;-93
2022/06/18 02:59:13;;;;;;;1.95;1.85;;;16.30;99.90;;;;;;5113487;28;20246;-92
2022/06/18 03:01:41;;;;;;;2.25;2.13;;;16.30;99.90;;;;;;5113600;28;20207;-92
2022/06/18 03:04:10;;;;;;;2.42;2.22;;;16.40;99.90;;;;;;5113598;28;20235;-92
2022/06/18 03:06:39;;;;;;;2.38;2.17;;;16.40;99.90;;;;;;5113417;28;20203;-92
2022/06/18 03:09:09;;;;;;;2.20;1.83;;;16.40;99.90;;;;;;5113140;28;20228;-92
2022/06/18 03:14:25;;;;;;;1.70;1.60;;;16.30;99.90;;;;;;5113482;28;20234;-92
2022/06/18 03:16:54;;;;;;;2.05;1.95;;;16.30;99.90;;;;;;5113870;28;20233;-92
2022/06/18 03:19:31;;;;;;;2.20;1.75;;;16.30;99.90;;;;;;5113559;28;20227;-92
2022/06/18 03:22:05;;;;;;;2.38;1.88;;;16.30;99.90;;;;;;5113082;28;20195;-93
2022/06/18 03:24:34;;;;;;;2.15;2.05;;;16.30;99.90;;;;;;5113174;28;20214;-92
2022/06/18 03:27:02;;;;;;;4.88;2.25;;;16.30;99.90;;;;;;5113204;28;20250;-92
2022/06/18 03:29:32;;;;;;;2.80;2.40;;;16.30;99.90;;;;;;5113336;28;20243;-92
2022/06/18 03:32:01;;;;;;;1.92;1.83;;;16.40;99.90;;;;;;5112902;28;20243;-92
2022/06/18 03:34:30;;;;;;;2.25;1.92;;;16.40;99.90;;;;;;5113126;28;20235;-92
2022/06/18 03:36:58;;;;;;;2.10;2.00;;;16.40;99.90;;;;;;5112881;28;20374;-92
2022/06/18 03:39:27;;;;;;;2.42;1.92;;;16.40;99.90;;;;;;5113698;28;20287;-92
2022/06/18 03:41:56;;;;;;;2.22;2.00;;;16.40;99.90;;;;;;5113259;28;20231;-92
2022/06/18 03:44:25;;;;;;;2.58;2.38;;;16.40;99.90;;;;;;5113220;28;20299;-92
2022/06/18 03:46:55;;;;;;;1.92;1.83;;;16.40;99.90;;;;;;5112986;28;20287;-92
2022/06/18 03:49:27;;;;;;;2.40;2.20;;;16.30;99.90;;;;;;5112587;28;20266;-93
2022/06/18 03:51:57;;;;;;;1.85;1.75;;;16.40;99.90;;;;;;5113165;28;20207;-92
2022/06/18 03:54:25;;;;;;;1.80;1.70;;;16.40;99.90;;;;;;5112905;28;20239;-92
2022/06/18 03:56:54;;;;;;;2.00;1.85;;;16.40;99.90;;;;;;5112982;28;20268;-92
2022/06/18 03:59:23;;;;;;;1.98;1.88;;;16.40;99.90;;;;;;5112731;28;20311;-92
2022/06/18 04:01:51;;;;;;;2.20;2.00;;;16.40;99.90;;;;;;5112720;28;20250;-92
2022/06/18 04:04:21;;;;;;;2.63;2.42;;;16.50;99.90;;;;;;5117648;28;20203;-92
2022/06/18 04:06:50;;;;;;;2.20;1.92;;;16.50;99.90;;;;;;5117394;28;20216;-92
2022/06/18 04:09:19;;;;;;;2.38;2.17;;;16.60;99.90;;;;;;5112953;28;20280;-92
2022/06/18 04:11:47;;;;;;;2.13;1.92;;;16.70;99.90;;;;;;5112109;28;20246;-92
2022/06/18 04:14:16;;;;;;;1.90;1.80;;;16.70;99.90;;;;;;5113344;28;20254;-92
2022/06/18 04:16:44;;;;;;;1.67;1.58;;;16.70;99.90;;;;;;5116785;28;20268;-92
2022/06/18 04:19:13;;;;;;;1.70;1.60;;;16.70;99.90;;;;;;5116670;28;20236;-92
2022/06/18 04:21:43;;;;;;;2.67;1.75;;;16.80;99.90;;;;;;5116517;28;20203;-91
2022/06/18 04:24:12;;;;;;;2.03;1.92;;;16.90;99.90;;;;;;5116684;28;20203;-92
2022/06/18 04:26:40;;;;;;;2.25;2.03;;;17.00;99.90;;;;;;5116610;28;20222;-92
2022/06/18 04:29:08;;;;;;;3.13;2.40;;;17.10;99.90;;;;;;5116380;28;20295;-92
2022/06/18 04:31:36;;;;;;;2.05;1.95;;;17.20;99.90;;;;;;5115858;28;20247;-92
2022/06/18 04:34:05;;;;;;;1.50;1.50;;;17.30;99.90;;;;;;5116299;28;20235;-92
2022/06/18 04:36:36;;;;;;;1.65;1.55;;;17.40;99.90;;;;;;5116387;28;20296;-92
2022/06/18 04:39:06;;;;;;;2.20;2.10;;;17.40;99.90;;;;;;5116191;28;20315;-92
2022/06/18 04:41:35;;;;;;;2.60;1.80;;;17.40;99.90;;;;;;5116059;28;20223;-92
2022/06/18 04:44:03;;;;;;;2.00;1.77;;;17.40;99.90;;;;;;5116219;28;20227;-92
2022/06/18 04:46:32;;;;;;;2.00;1.90;;;17.50;99.90;;;;;;5115679;28;20207;-92
2022/06/18 04:49:01;;;;;;;2.10;1.90;;;17.50;99.90;;;;;;5116176;28;20227;-92
2022/06/18 04:51:29;;;;;;;2.40;2.20;;;17.60;99.90;;;;;;5115812;28;20311;-92
2022/06/18 04:53:58;;;;;;;1.75;1.65;;;17.70;99.90;;;;;;5116243;28;20224;-92
2022/06/18 04:56:27;;;;;;;1.88;1.77;;;17.80;99.90;;;;;;5115973;28;20267;-92
2022/06/18 04:58:56;;;;;;;2.13;1.98;;;17.90;99.90;;;;;;5115706;28;20310;-92
2022/06/18 05:01:32;;;;;;;3.85;2.00;;;18.00;99.90;;;;;;5115504;28;20200;-92
2022/06/18 05:04:01;;;;;;;2.67;2.00;;;18.20;99.90;;;;;;5115988;28;20242;-92
2022/06/18 05:06:29;;;;;;;3.65;1.90;;;18.20;99.90;;;;;;5115874;28;20233;-92
2022/06/18 05:08:58;;;;;;;1.58;1.48;;;18.30;99.90;;;;;;5115420;28;20235;-92
2022/06/18 05:11:28;;;;;;;2.50;2.17;;;18.40;99.90;;;;;;5115091;28;20367;-92
2022/06/18 05:13:56;;;;;;;1.98;1.80;;;18.50;99.90;;;;;;5115588;28;20211;-92
2022/06/18 05:16:25;;;;;;;1.77;1.65;;;18.60;99.90;;;;;;5116037;28;20238;-92
2022/06/18 05:18:55;;;;;;;1.85;1.75;;;18.60;99.90;;;;;;5115609;28;20252;-92
2022/06/18 05:21:24;;;;;;;2.00;1.90;;;18.70;99.90;;;;;;5115014;27;20196;-92
2022/06/18 05:23:52;;;;;;;1.65;1.55;;;18.80;99.90;;;;;;5115624;28;20202;-92
2022/06/18 05:26:22;;;;;;;6.22;2.13;;;18.80;99.90;;;;;;5115341;28;20300;-93
2022/06/18 05:28:52;;;;;;;1.60;1.50;;;18.90;99.90;;;;;;5115524;28;20318;-93
2022/06/18 05:31:21;;;;;;;2.40;2.20;;;19.00;99.90;;;;;;5115300;28;20224;-92
2022/06/18 05:33:49;;;;;;;1.98;1.88;;;19.10;99.90;;;;;;5116708;28;20206;-92
2022/06/18 05:36:19;;;;;;;2.72;1.85;;;19.20;99.90;;;;;;5118711;28;20245;-92
2022/06/18 05:38:51;;;;;;;2.00;1.90;;;19.30;99.90;;;;;;5119353;28;20230;-93
2022/06/18 05:41:19;;;;;;;1.92;1.75;;;19.50;99.90;;;;;;5115292;28;20204;-93
2022/06/18 05:43:47;;;;;;;1.90;1.80;;;19.60;99.90;;;;;;5115181;28;20234;-93
2022/06/18 05:46:17;;;;;;;2.00;1.85;;;19.70;99.90;;;;;;5115009;28;20299;-93
2022/06/18 05:48:46;;;;;;;1.80;1.70;;;19.80;99.90;;;;;;5114842;28;20229;-93
2022/06/18 05:51:14;;;;;;;5.53;1.73;;;19.80;99.90;;;;;;5114770;28;20239;-93
2022/06/18 05:53:43;;;;;;;1.60;1.50;;;20.00;99.90;;;;;;5115280;28;20203;-93
2022/06/18 05:56:11;;;;;;;4.15;1.60;;;20.10;99.90;;;;;;5115493;28;20233;-93
2022/06/18 05:58:40;;;;;;;2.72;1.77;;;20.00;99.90;;;;;;5115495;28;20251;-92
2022/06/18 06:01:08;;;;;;;2.17;1.98;;;20.10;99.90;;;;;;5114334;28;20268;-91
2022/06/18 06:03:39;;;;;;;1.65;1.55;;;20.00;99.90;;;;;;5114211;28;20295;-93
2022/06/18 06:06:07;;;;;;;3.65;1.80;;;20.10;99.90;;;;;;5114328;28;20229;-92
2022/06/18 06:08:35;;;;;;;1.90;1.75;;;20.20;99.90;;;;;;5114352;28;20216;-93
2022/06/18 06:13:50;;;;;;;2.92;2.00;;;20.60;99.90;;;;;;5114478;28;20199;-93
2022/06/18 06:16:20;;;;;;;2.58;1.90;;;20.80;99.90;;;;;;5114207;28;20234;-93
2022/06/18 06:18:51;;;;;;;1.52;1.42;;;21.00;99.90;;;;;;5114406;28;20224;-93
2022/06/18 06:21:19;;;;;;;2.25;1.60;;;21.00;99.90;;;;;;5114150;28;20257;-93
2022/06/18 06:23:49;;;;;;;2.00;1.80;;;21.20;99.90;;;;;;5114363;28;20211;-93
2022/06/18 06:26:21;;;;;;;2.38;1.75;;;21.40;99.90;;;;;;5114257;28;20294;-93
2022/06/18 06:28:50;;;;;;;2.90;2.00;;;21.60;99.90;;;;;;5114182;28;20224;-93
2022/06/18 06:31:19;;;;;;;2.20;2.00;;;21.90;99.90;;;;;;5113900;28;20227;-92
2022/06/18 06:33:47;;;;;;;2.17;2.03;;;22.10;99.90;;;;;;5114146;28;20211;-93
2022/06/18 06:36:18;;;;;;;2.83;2.10;;;22.00;99.90;;;;;;5119265;28;20253;-93
2022/06/18 06:38:47;;;;;;;2.40;2.20;;;22.10;99.90;;;;;;5113501;28;20291;-93
2022/06/18 06:41:20;;;;;;;2.28;2.08;;;22.30;99.90;;;;;;5113511;28;20203;-93
2022/06/18 06:43:48;;;;;;;1.80;1.67;;;22.50;99.90;;;;;;5113963;28;20200;-93
2022/06/18 06:46:18;;;;;;;2.25;2.05;;;22.60;99.90;;;;;;5113542;28;20218;-93
2022/06/18 06:48:46;;;;;;;4.82;1.77;;;22.70;99.90;;;;;;5114245;28;20223;-93
2022/06/18 06:51:18;;;;;;;1.92;1.83;;;22.90;99.90;;;;;;5113987;28;20267;-93
2022/06/18 06:53:47;;;;;;;1.50;1.40;;;23.00;99.90;;;;;;5114087;28;20295;-94
2022/06/18 06:59:03;;;;;;;2.13;1.88;;;23.20;99.90;;;;;;5116524;28;20240;-93
2022/06/18 07:01:34;;;;;;;1.75;1.52;;;23.40;99.90;;;;;;5114394;28;20231;-92
2022/06/18 07:04:02;;;;;;;3.80;1.45;;;23.60;99.90;;;;;;5116441;28;20263;-93
2022/06/18 07:06:33;;;;;;;1.60;1.50;;;23.70;99.90;;;;;;5118408;28;20224;-93
2022/06/18 07:09:02;;;;;;;1.70;1.60;;;23.90;99.90;;;;;;5116525;28;20268;-93
2022/06/18 07:11:30;;;;;;;2.65;1.50;;;24.10;99.90;;;;;;5114009;28;20248;-93
2022/06/18 07:13:58;;;;;;;1.50;1.40;;;24.50;99.90;;;;;;5113610;28;20219;-93
2022/06/18 07:16:27;;;;;;;2.25;1.73;;;24.70;99.90;;;;;;5113384;28;20289;-93
2022/06/18 07:18:56;;;;;;;2.60;1.95;;;24.90;99.90;;;;;;5113636;28;20227;-91
2022/06/18 07:21:25;;;;;;;2.25;1.80;;;25.60;99.70;;;;;;5112911;28;20215;-92
2022/06/18 07:23:55;;;;;;;1.80;1.70;;;26.00;98.90;;;;;;5113242;28;20204;-93
2022/06/18 07:26:23;;;;;;;1.38;1.27;;;26.50;97.50;;;;;;5113424;28;20227;-92
2022/06/18 07:28:51;;;;;;;2.35;1.40;;;26.50;96.20;;;;;;5113265;28;20258;-93
2022/06/18 07:31:27;;;;;;;3.22;1.83;;;27.00;94.90;;;;;;5113095;28;20236;-93
2022/06/18 07:33:58;;;;;;;3.10;1.70;;;27.20;94.60;;;;;;5113396;28;20204;-93
2022/06/18 07:36:27;;;;;;;1.83;1.73;;;27.40;93.80;;;;;;5113178;28;20238;-93
2022/06/18 07:38:57;;;;;;;2.35;1.90;;;28.20;92.90;;;;;;5113069;28;20239;-93
2022/06/18 07:41:31;;;;;;;1.88;1.77;;;28.90;91.50;;;;;;5112850;28;20238;-93
2022/06/18 07:44:00;;;;;;;1.52;1.42;;;29.30;90.50;;;;;;5113325;28;20242;-93
2022/06/18 07:46:28;;;;;;;2.13;1.38;;;30.00;89.50;;;;;;5113005;28;20286;-94
2022/06/18 07:48:56;;;;;;;1.40;1.30;;;31.10;84.10;;;;;;5113529;28;20227;-93
2022/06/18 07:51:26;;;;;;;1.13;1.13;;;31.80;74.10;;;;;;5117025;28;20198;-93
2022/06/18 07:53:56;;;;;;;1.20;1.20;;;31.30;70.40;;;;;;5117534;28;20241;-93
2022/06/18 07:56:25;;;;;;;1.00;1.00;;;31.40;69.30;;;;;;5117325;28;20203;-93
2022/06/18 07:58:53;;;;;;;1.48;1.02;;;31.60;68.30;;;;;;5117033;28;20219;-93
2022/06/18 08:01:21;;;;;;;1.50;1.40;;;31.60;66.80;;;;;;5117091;28;20246;-93
2022/06/18 08:03:50;;;;;;;1.25;1.23;;;31.60;68.30;;;;;;5116838;28;20267;-94
2022/06/18 08:06:19;;;;;;;2.80;1.30;;;32.00;66.40;;;;;;5116720;28;20203;-92
2022/06/18 08:08:47;;;;;;;1.75;1.20;;;32.20;64.80;;;;;;5116815;28;20245;-94
2022/06/18 08:11:19;;;;;;;1.00;1.00;;;32.70;64.70;;;;;;5116694;27;20210;-94
2022/06/18 08:13:49;;;;;;;1.63;1.52;;;33.80;62.10;;;;;;5117044;28;20283;-93
2022/06/18 08:16:18;;;;;;;1.48;1.33;;;33.20;60.60;;;;;;5117316;28;20195;-93
2022/06/18 08:18:47;;;;;;;2.33;1.20;;;33.20;60.70;;;;;;5116772;28;20258;-93
2022/06/18 08:21:18;;;;;;;2.38;1.80;;;33.80;59.90;;;;;;5116585;28;20294;-93
2022/06/18 08:23:47;;;;;;;1.45;1.08;;;33.80;58.70;;;;;;5116373;28;20219;-93
2022/06/18 08:26:18;;;;;;;1.35;1.33;;;33.40;58.90;;;;;;5116360;28;20203;-93
2022/06/18 08:28:46;;;;;;;1.15;1.15;;;33.40;59.20;;;;;;5116664;27;20246;-93
2022/06/18 08:31:15;;;;;;;1.48;1.38;;;33.90;58.40;;;;;;5116759;28;20260;-93
2022/06/18 08:33:43;;;;;;;3.15;1.13;;;34.00;57.30;;;;;;5117157;28;20231;-93
2022/06/18 08:36:15;;;;;;;1.60;1.20;;;34.50;57.90;;;;;;5120493;28;20223;-93
2022/06/18 08:38:46;;;;;;;1.40;1.27;;;35.30;56.60;;;;;;5121269;28;20242;-93
2022/06/18 08:41:43;;;;;;;2.10;1.30;;;35.00;56.50;;;;;;5116880;28;20199;-93
2022/06/18 08:44:36;;;;;;;1.58;1.48;;;35.30;55.00;;;;;;5116150;28;20215;-93
2022/06/18 08:47:43;;;;;;;1.27;1.17;;;34.60;54.70;;;;;;5116309;28;20294;-93
2022/06/18 08:50:43;;;;;;;1.20;1.20;;;35.30;54.10;;;;;;5115555;28;20226;-94
2022/06/18 08:54:08;;;;;;;2.00;1.50;;;35.60;54.40;;;;;;5116042;28;20248;-93
2022/06/18 09:05:17;;;;;;;1.42;1.33;;;35.70;51.90;;;;;;4949850;28;20232;-92
2022/06/18 09:08:43;;;;;;;1.38;1.25;;;34.80;53.20;;;;;;4984776;28;20202;-93
2022/06/18 09:11:41;;;;;;;1.50;1.40;;;35.60;53.20;;;;;;5033473;28;20210;-93
2022/06/18 09:14:47;;;;;;;1.30;1.20;;;35.80;51.70;;;;;;5033062;28;20198;-93
2022/06/18 09:21:40;;;;;;;1.10;1.10;;;35.50;52.70;;;;;;5026538;28;20206;-93
2022/06/18 09:28:21;;;;;;;1.05;1.05;;;34.10;53.00;;;;;;4953838;28;20204;-93
2022/06/18 09:31:28;;;;;;;;;;;;;;;;;;;;;
2022/06/18 09:38:09;;;;;;;1.52;1.42;;;33.10;54.40;;;;;;4951263;29;20331;-94
2022/06/18 09:40:41;;;;;;;1.40;1.30;;;33.70;54.70;;;;;;4954560;29;20267;-93
2022/06/18 09:43:19;;;;;;;2.00;1.42;;;34.20;54.00;;;;;;4954329;29;20372;-93
2022/06/18 09:45:52;;;;;;;4.40;1.40;;;34.20;52.80;;;;;;4953865;29;20231;-93
2022/06/18 09:48:23;;;;;;;1.52;1.42;;;33.70;54.20;;;;;;4954171;29;20208;-93
2022/06/18 09:50:54;;;;;;;1.42;1.33;;;34.10;53.60;;;;;;4954261;29;20208;-93
2022/06/18 09:53:28;;;;;;;1.60;1.50;;;34.10;54.50;;;;;;4954977;29;20287;-93
2022/06/18 09:56:02;;;;;;;1.40;1.30;;;33.90;53.90;;;;;;4954356;29;20246;-93
2022/06/18 09:58:36;;;;;;;2.97;1.52;;;33.80;54.00;;;;;;5010421;28;20288;-93
2022/06/18 10:01:06;;;;;;;1.48;1.35;;;34.40;55.90;;;;;;5032163;28;20269;-93
2022/06/18 10:09:42;;;;;;;1.20;1.20;;;35.00;52.20;;;;;;5118782;28;20249;-93
2022/06/18 10:12:17;;;;;;;1.65;1.55;;;34.80;56.50;;;;;;5114020;28;20275;-93
2022/06/18 10:14:54;;;;;;;1.60;1.50;;;35.60;53.20;;;;;;5114201;28;20205;-93
2022/06/18 10:17:40;;;;;;;4.00;1.75;;;36.40;52.80;;;;;;5114290;28;20207;-94
2022/06/18 10:20:17;;;;;;;1.60;1.50;;;36.80;51.10;;;;;;5113839;28;20219;-94
2022/06/18 10:22:52;;;;;;;1.70;1.60;;;36.50;50.40;;;;;;5114342;28;20203;-93
2022/06/18 10:25:30;;;;;;;1.50;1.40;;;35.80;50.50;;;;;;5114579;28;20203;-94
2022/06/18 10:28:12;;;;;;;1.60;1.50;;;36.00;51.20;;;;;;5114320;28;20230;-94
2022/06/18 10:30:52;;;;;;;1.60;1.50;;;35.90;49.50;;;;;;5113749;28;20442;-93
2022/06/18 10:33:31;;;;;;;1.42;1.33;;;35.60;51.00;;;;;;5113837;28;20214;-93
2022/06/18 10:36:09;;;;;;;1.77;1.63;;;35.40;52.00;;;;;;5114134;28;20207;-93
2022/06/18 10:38:53;;;;;;;2.63;2.40;;;35.20;52.30;;;;;;5113822;28;20290;-94
2022/06/18 10:41:27;;;;;;;1.70;1.60;;;34.50;51.30;;;;;;5113777;28;20242;-93
2022/06/18 10:44:14;;;;;;;2.95;2.03;;;34.40;53.20;;;;;;5113799;28;20246;-93
2022/06/18 10:46:44;;;;;;;1.50;1.40;;;34.60;51.90;;;;;;5113375;28;20207;-93
2022/06/18 10:49:13;;;;;;;1.70;1.60;;;34.50;52.30;;;;;;5113718;28;20222;-93
2022/06/18 10:51:47;;;;;;;5.78;1.77;;;33.90;53.40;;;;;;5113507;28;20203;-93
2022/06/18 10:54:17;;;;;;;2.47;1.60;;;33.90;55.00;;;;;;5113879;28;20198;-94
2022/06/18 10:56:51;;;;;;;1.77;1.50;;;34.70;55.10;;;;;;5113612;28;20232;-93
2022/06/18 10:59:30;;;;;;;1.77;1.67;;;35.60;55.40;;;;;;5113575;28;20301;-93
2022/06/18 11:02:15;;;;;;;1.98;1.88;;;36.10;51.60;;;;;;5113407;28;20206;-93
2022/06/18 11:04:55;;;;;;;2.58;2.38;;;35.80;51.00;;;;;;5114458;28;20229;-93
2022/06/18 11:07:27;;;;;;;1.60;1.50;;;35.00;50.80;;;;;;5113326;28;20210;-93
2022/06/18 11:09:58;;;;;;;1.70;1.60;;;35.10;52.90;;;;;;5113417;28;20307;-93
2022/06/18 11:12:31;;;;;;;2.30;1.88;;;34.80;52.00;;;;;;5113209;28;20230;-93
2022/06/18 11:14:59;;;;;;;1.52;1.45;;;34.70;52.70;;;;;;5113262;28;20223;-93
2022/06/18 11:17:31;;;;;;;1.70;1.60;;;34.30;50.60;;;;;;5113194;28;20294;-94
2022/06/18 11:20:10;;;;;;;1.90;1.80;;;34.50;51.50;;;;;;5112708;28;20278;-94
2022/06/18 11:22:39;;;;;;;1.65;1.55;;;35.00;50.40;;;;;;5113096;28;20214;-94
2022/06/18 11:25:28;;;;;;;1.90;1.73;;;35.40;50.00;;;;;;5112962;28;20284;-93
2022/06/18 11:28:04;;;;;;;1.67;1.58;;;35.40;50.00;;;;;;5113764;28;20248;-94
2022/06/18 11:30:44;;;;;;;1.83;1.73;;;35.70;51.20;;;;;;5112847;28;20261;-94
2022/06/18 11:33:29;;;;;;;1.83;1.70;;;36.20;50.40;;;;;;5113093;28;20210;-94
2022/06/18 11:36:07;;;;;;;2.03;1.90;;;36.40;48.00;;;;;;5114129;28;20195;-93
2022/06/18 11:38:38;;;;;;;1.90;1.80;;;36.60;49.50;;;;;;5117275;28;20226;-93
2022/06/18 11:41:15;;;;;;;2.42;2.22;;;36.30;48.40;;;;;;5116020;28;20233;-93
2022/06/18 11:43:54;;;;;;;1.98;1.77;;;35.90;48.30;;;;;;5113147;28;20206;-94
2022/06/18 11:46:27;;;;;;;1.88;1.77;;;35.50;48.90;;;;;;5112769;28;20256;-94
2022/06/18 11:49:05;;;;;;;1.70;1.60;;;35.70;49.80;;;;;;5112834;28;20291;-94
2022/06/18 11:51:39;;;;;;;1.92;1.83;;;35.40;50.70;;;;;;5112861;28;20298;-93
2022/06/18 11:54:15;;;;;;;2.33;2.00;;;35.40;50.90;;;;;;5112966;28;20214;-94
2022/06/18 11:56:53;;;;;;;1.75;1.65;;;35.40;49.70;;;;;;5113204;28;20286;-94
2022/06/18 11:59:27;;;;;;;3.08;1.90;;;35.20;49.10;;;;;;5112964;28;20245;-93
2022/06/18 12:02:03;;;;;;;1.55;1.45;;;35.20;48.70;;;;;;5112341;28;20229;-93
2022/06/18 12:04:39;;;;;;;1.80;1.70;;;35.40;47.70;;;;;;5112524;28;20261;-93
2022/06/18 12:07:14;;;;;;;1.58;1.48;;;35.30;47.90;;;;;;5112685;28;20233;-93
2022/06/18 12:09:43;;;;;;;3.53;1.83;;;35.50;47.10;;;;;;5112743;28;20290;-93
2022/06/18 12:12:46;;;;;;;2.45;2.25;;;35.70;50.40;;;;;;5112468;28;20226;-94
2022/06/18 12:15:24;;;;;;;1.55;1.48;;;36.20;48.80;;;;;;5081020;28;20285;-93
2022/06/18 12:18:00;;;;;;;1.83;1.73;;;36.80;47.80;;;;;;5112617;28;20218;-94
2022/06/18 12:20:51;;;;;;;2.03;1.92;;;37.20;46.50;;;;;;5112609;28;20250;-94
2022/06/18 12:23:25;;;;;;;1.92;1.70;;;37.50;44.80;;;;;;5112921;28;20238;-94
2022/06/18 12:26:01;;;;;;;1.45;1.35;;;37.30;43.90;;;;;;5112553;28;20226;-93
2022/06/18 12:28:39;;;;;;;1.70;1.60;;;37.20;44.40;;;;;;5112614;28;20290;-93
2022/06/18 12:31:12;;;;;;;2.20;2.00;;;37.00;45.50;;;;;;5112200;28;20207;-94
2022/06/18 12:33:59;;;;;;;1.98;1.88;;;36.40;45.50;;;;;;5112512;28;20223;-93
2022/06/18 12:36:37;;;;;;;1.90;1.75;;;35.80;46.00;;;;;;5114722;28;20290;-94
2022/06/18 12:39:15;;;;;;;3.13;1.75;;;35.60;46.10;;;;;;5116166;28;20235;-94
2022/06/18 12:41:55;;;;;;;2.13;1.70;;;35.40;46.40;;;;;;5116017;28;20207;-94
2022/06/18 12:44:40;;;;;;;1.75;1.65;;;35.50;47.70;;;;;;5116191;28;20231;-94
2022/06/18 12:47:15;;;;;;;2.17;1.98;;;34.80;46.70;;;;;;5116046;28;20225;-94
2022/06/18 12:49:52;;;;;;;7.22;4.00;;;34.10;47.40;;;;;;5116237;28;20234;-94
2022/06/18 12:52:31;;;;;;;2.88;1.98;;;33.50;48.60;;;;;;5115917;28;20253;-94
2022/06/18 12:55:10;;;;;;;2.47;2.00;;;33.30;48.60;;;;;;5115844;28;20226;-94
2022/06/18 12:57:52;;;;;;;2.15;1.95;;;33.10;48.20;;;;;;5115892;28;20286;-94
2022/06/18 13:00:27;;;;;;;2.00;1.90;;;32.70;49.00;;;;;;5115838;28;20228;-94
2022/06/18 13:03:27;;;;;;;1.95;1.85;;;32.60;49.50;;;;;;5115805;28;20237;-94
2022/06/18 13:06:02;;;;;;;1.85;1.65;;;32.60;49.50;;;;;;5115553;28;20243;-93
2022/06/18 13:08:45;;;;;;;2.60;2.33;;;32.90;48.80;;;;;;5120160;28;20310;-94
2022/06/18 13:11:27;;;;;;;1.88;1.77;;;33.20;49.10;;;;;;5119800;28;20259;-92
2022/06/18 13:14:13;;;;;;;1.70;1.60;;;33.60;48.90;;;;;;5115560;28;20283;-94
2022/06/18 13:16:47;;;;;;;2.45;2.00;;;33.80;48.10;;;;;;5115871;28;20230;-94
2022/06/18 13:19:22;;;;;;;1.90;1.75;;;33.80;49.30;;;;;;5115418;28;20246;-93
2022/06/18 13:21:51;;;;;;;1.90;1.80;;;33.40;47.90;;;;;;5115132;28;20234;-94
2022/06/18 13:30:03;;;;;;;1.67;1.58;;;33.50;49.10;;;;;;5081126;28;20227;-94
2022/06/18 13:32:38;;;;;;;3.58;1.80;;;33.70;49.50;;;;;;5115112;28;20223;-94
2022/06/18 13:35:14;;;;;;;1.90;1.80;;;33.80;49.60;;;;;;5115195;28;20215;-94
2022/06/18 13:37:52;;;;;;;1.95;1.73;;;33.80;48.90;;;;;;5115361;28;20199;-94
2022/06/18 13:40:29;;;;;;;2.58;1.40;;;33.80;48.80;;;;;;5114798;28;20257;-94
2022/06/18 13:43:07;;;;;;;3.50;1.75;;;33.80;47.90;;;;;;5115209;28;20234;-93
2022/06/18 13:45:46;;;;;;;2.53;2.00;;;33.60;48.00;;;;;;5114442;28;20268;-94
2022/06/18 13:48:26;;;;;;;2.47;1.55;;;33.40;48.80;;;;;;5115247;28;20290;-94
2022/06/18 13:50:55;;;;;;;1.98;1.75;;;33.00;48.80;;;;;;5114619;28;20278;-94
2022/06/18 13:53:25;;;;;;;1.60;1.50;;;33.00;49.30;;;;;;5114783;28;20235;-94
2022/06/18 13:55:56;;;;;;;1.85;1.75;;;32.90;48.20;;;;;;5114389;28;20219;-94
2022/06/18 13:58:30;;;;;;;1.80;1.65;;;32.80;48.40;;;;;;5114740;28;20207;-93
2022/06/18 14:01:07;;;;;;;2.00;1.90;;;32.80;49.70;;;;;;5114640;28;20290;-94
2022/06/18 14:03:40;;;;;;;2.63;2.17;;;32.90;50.00;;;;;;5114718;28;20211;-94